Time;durP1;ratioP1;P1;durP2;ratioP2;P2;SDS_P1;SDS_P2;PMS_P1;PMS_P2;Temp;Humidity;BMP_temperature;BMP_pressure;BME280_temperature;BME280_humidity;BME280_pressure;Samples;Min_cycle;Max_cycle;Signal;HPM_P1;HPM_P2
2022/07/08 00:00:25;;;;;;;2.83;1.15;;;18.50;98.70;;;;;;5119866;27;20422;-77
2022/07/08 00:02:51;;;;;;;3.65;2.05;;;18.50;98.80;;;;;;5121557;27;20577;-77
2022/07/08 00:05:17;;;;;;;3.63;1.60;;;18.50;98.80;;;;;;5117212;27;20040;-77
2022/07/08 00:07:43;;;;;;;4.68;2.15;;;18.50;98.90;;;;;;5118994;27;20051;-77
2022/07/08 00:10:09;;;;;;;2.75;1.65;;;18.50;98.90;;;;;;5114961;27;20122;-77
2022/07/08 00:12:35;;;;;;;2.33;1.48;;;18.40;98.90;;;;;;5118746;27;20078;-77
2022/07/08 00:15:02;;;;;;;3.83;1.70;;;18.40;98.90;;;;;;5125001;27;20050;-78
2022/07/08 00:17:27;;;;;;;3.35;2.25;;;18.30;99.00;;;;;;5122049;27;20237;-77
2022/07/08 00:19:53;;;;;;;2.58;1.60;;;18.30;99.10;;;;;;5122989;27;20124;-77
2022/07/08 00:22:19;;;;;;;3.35;1.42;;;18.20;99.20;;;;;;5119177;27;20455;-77
2022/07/08 00:24:45;;;;;;;2.95;2.20;;;18.20;99.30;;;;;;5122415;27;20051;-77
2022/07/08 00:27:13;;;;;;;2.50;1.63;;;18.10;99.40;;;;;;5122183;27;20058;-78
2022/07/08 00:29:38;;;;;;;2.65;1.83;;;18.10;99.40;;;;;;5122697;27;20036;-77
2022/07/08 00:32:05;;;;;;;3.03;1.73;;;18.10;99.50;;;;;;5121977;27;21056;-77
2022/07/08 00:34:31;;;;;;;5.43;2.42;;;18.10;99.50;;;;;;5118510;27;20122;-77
2022/07/08 00:36:57;;;;;;;4.07;1.67;;;18.00;99.60;;;;;;5124335;27;20097;-77
2022/07/08 00:39:23;;;;;;;3.72;1.70;;;18.10;99.70;;;;;;5121288;27;20835;-77
2022/07/08 00:41:48;;;;;;;3.97;1.83;;;18.00;99.70;;;;;;5119254;27;20039;-77
2022/07/08 00:44:14;;;;;;;3.03;2.10;;;17.90;99.80;;;;;;5123254;27;20771;-77
2022/07/08 00:46:40;;;;;;;4.38;2.20;;;17.90;99.90;;;;;;5123056;27;20051;-77
2022/07/08 00:49:06;;;;;;;4.20;1.70;;;17.90;99.90;;;;;;5120279;27;20065;-77
2022/07/08 00:51:33;;;;;;;4.78;2.33;;;17.80;99.90;;;;;;5117410;27;20611;-77
2022/07/08 00:53:59;;;;;;;3.55;1.80;;;17.80;99.90;;;;;;5120400;27;20523;-77
2022/07/08 00:56:27;;;;;;;4.18;1.40;;;17.80;99.90;;;;;;5121136;27;20087;-77
2022/07/08 00:58:53;;;;;;;3.08;1.88;;;17.70;99.90;;;;;;5121994;27;21236;-77
2022/07/08 01:01:20;;;;;;;3.25;1.67;;;17.70;99.90;;;;;;5122429;27;20113;-77
2022/07/08 01:03:50;;;;;;;3.45;1.98;;;17.70;99.90;;;;;;5121011;27;20326;-78
2022/07/08 01:06:16;;;;;;;3.53;1.80;;;17.70;99.90;;;;;;5122267;27;20589;-76
2022/07/08 01:08:43;;;;;;;3.67;1.70;;;17.70;99.90;;;;;;5121259;27;20039;-77
2022/07/08 01:11:09;;;;;;;5.72;2.50;;;17.60;99.90;;;;;;5122286;27;20043;-77
2022/07/08 01:13:36;;;;;;;3.50;2.03;;;17.60;99.90;;;;;;5116812;27;20039;-77
2022/07/08 01:16:02;;;;;;;5.68;1.98;;;17.60;99.90;;;;;;5120242;27;20496;-77
2022/07/08 01:18:30;;;;;;;4.68;2.03;;;17.60;99.90;;;;;;5103796;27;20047;-77
2022/07/08 01:20:58;;;;;;;5.75;2.15;;;17.60;99.90;;;;;;5124170;27;20051;-77
2022/07/08 01:23:24;;;;;;;3.58;2.03;;;17.60;99.90;;;;;;5118140;27;20433;-77
2022/07/08 01:25:52;;;;;;;2.72;1.80;;;17.60;99.90;;;;;;5121044;27;20050;-77
2022/07/08 01:28:19;;;;;;;3.80;2.10;;;17.50;99.90;;;;;;5117167;27;20046;-77
2022/07/08 01:30:44;;;;;;;4.50;1.85;;;17.50;99.90;;;;;;5118814;27;20043;-77
2022/07/08 01:33:10;;;;;;;3.92;2.10;;;17.50;99.90;;;;;;5122168;27;20589;-77
2022/07/08 01:35:36;;;;;;;3.10;1.88;;;17.40;99.90;;;;;;5117292;27;20093;-77
2022/07/08 01:38:02;;;;;;;3.70;1.88;;;17.30;99.90;;;;;;5121514;27;20105;-77
2022/07/08 01:40:28;;;;;;;6.35;2.63;;;17.30;99.90;;;;;;5120861;27;20040;-77
2022/07/08 01:42:54;;;;;;;3.28;1.73;;;17.30;99.90;;;;;;5119849;27;20039;-77
2022/07/08 01:45:20;;;;;;;8.63;2.90;;;17.40;99.90;;;;;;5121077;27;20043;-77
2022/07/08 01:47:46;;;;;;;2.10;1.63;;;17.30;99.90;;;;;;5124037;27;20031;-77
2022/07/08 01:50:12;;;;;;;5.20;1.85;;;17.30;99.90;;;;;;5120739;27;20328;-77
2022/07/08 01:52:38;;;;;;;2.97;1.80;;;17.30;99.90;;;;;;5118789;27;20043;-77
2022/07/08 01:55:05;;;;;;;4.35;1.90;;;17.30;99.90;;;;;;5119284;27;20039;-77
2022/07/08 01:57:31;;;;;;;3.92;2.10;;;17.20;99.90;;;;;;5117432;27;20043;-77
2022/07/08 01:59:57;;;;;;;6.78;1.85;;;17.20;99.90;;;;;;5122598;27;20539;-77
2022/07/08 02:02:23;;;;;;;2.58;1.75;;;17.10;99.90;;;;;;5120340;27;20035;-77
2022/07/08 02:04:49;;;;;;;2.35;1.77;;;17.10;99.90;;;;;;5121174;27;20043;-77
2022/07/08 02:07:15;;;;;;;3.33;2.00;;;17.00;99.90;;;;;;5062808;27;1591187;-77
2022/07/08 02:09:42;;;;;;;3.53;1.73;;;17.00;99.90;;;;;;5123360;27;20027;-77
2022/07/08 02:12:18;;;;;;;4.43;2.25;;;16.90;99.90;;;;;;5120294;27;20366;-77
2022/07/08 02:15:03;;;;;;;3.13;1.38;;;16.80;99.90;;;;;;5121876;27;20031;-77
2022/07/08 02:17:38;;;;;;;2.38;1.65;;;16.90;99.90;;;;;;5121263;27;21811;-77
2022/07/08 02:20:06;;;;;;;3.45;1.95;;;16.90;99.90;;;;;;5135400;27;20545;-77
2022/07/08 02:22:33;;;;;;;4.40;3.15;;;16.80;99.90;;;;;;5118229;27;20049;-77
2022/07/08 02:24:58;;;;;;;3.65;1.83;;;16.80;99.90;;;;;;5123337;27;20035;-77
2022/07/08 02:27:24;;;;;;;5.78;2.47;;;16.80;99.90;;;;;;5117904;27;20043;-77
2022/07/08 02:29:50;;;;;;;4.68;2.10;;;16.80;99.90;;;;;;5122328;27;20040;-77
2022/07/08 02:32:16;;;;;;;3.80;2.30;;;16.80;99.90;;;;;;5119441;27;20040;-77
2022/07/08 02:34:42;;;;;;;4.70;1.92;;;16.80;99.90;;;;;;5122932;27;20496;-77
2022/07/08 02:37:08;;;;;;;5.32;2.20;;;16.80;99.90;;;;;;5120731;27;20524;-77
2022/07/08 02:39:34;;;;;;;3.47;2.50;;;16.80;99.90;;;;;;5122257;27;20039;-77
2022/07/08 02:42:00;;;;;;;2.83;1.85;;;16.70;99.90;;;;;;5117847;27;22584;-77
2022/07/08 02:44:26;;;;;;;4.45;1.70;;;16.80;99.90;;;;;;5120884;27;20043;-77
2022/07/08 02:46:51;;;;;;;3.88;2.60;;;16.70;99.90;;;;;;5120706;27;20495;-77
2022/07/08 02:49:17;;;;;;;4.78;1.77;;;16.70;99.90;;;;;;5123149;27;20327;-77
2022/07/08 02:51:43;;;;;;;4.85;2.50;;;16.70;99.90;;;;;;5118671;27;20488;-77
2022/07/08 02:54:09;;;;;;;4.50;2.30;;;16.60;99.90;;;;;;5122532;27;20121;-77
2022/07/08 02:56:35;;;;;;;2.42;1.60;;;16.60;99.90;;;;;;5120248;27;20611;-78
2022/07/08 02:59:02;;;;;;;2.58;1.92;;;16.60;99.90;;;;;;5122711;27;20122;-76
2022/07/08 03:01:28;;;;;;;5.32;1.75;;;16.50;99.90;;;;;;5118881;27;20572;-78
2022/07/08 03:03:54;;;;;;;2.65;1.70;;;16.50;99.90;;;;;;5121239;27;20078;-77
2022/07/08 03:06:20;;;;;;;4.65;2.10;;;16.50;99.90;;;;;;5119216;27;20052;-77
2022/07/08 03:08:46;;;;;;;4.50;2.40;;;16.40;99.90;;;;;;5105268;27;20048;-78
2022/07/08 03:11:12;;;;;;;5.80;2.58;;;16.50;99.90;;;;;;5116830;27;20427;-77
2022/07/08 03:13:37;;;;;;;6.68;2.38;;;16.40;99.90;;;;;;5122130;27;20142;-77
2022/07/08 03:16:04;;;;;;;4.90;1.63;;;16.40;99.90;;;;;;5122928;27;20047;-77
2022/07/08 03:18:34;;;;;;;6.30;1.92;;;16.40;99.90;;;;;;5120092;27;20605;-77
2022/07/08 03:21:03;;;;;;;2.85;1.63;;;16.30;99.90;;;;;;5118878;27;20044;-77
2022/07/08 03:23:29;;;;;;;6.05;2.10;;;16.30;99.90;;;;;;5121441;27;20115;-77
2022/07/08 03:25:55;;;;;;;12.13;2.40;;;16.30;99.90;;;;;;5122271;27;20043;-77
2022/07/08 03:28:21;;;;;;;3.05;1.60;;;16.30;99.90;;;;;;5122093;27;20105;-77
2022/07/08 03:30:47;;;;;;;4.43;1.95;;;16.30;99.90;;;;;;5101797;27;20096;-77
2022/07/08 03:33:13;;;;;;;4.65;2.05;;;16.30;99.90;;;;;;5119675;27;20039;-77
2022/07/08 03:35:38;;;;;;;6.70;3.25;;;16.20;99.90;;;;;;5120567;27;20039;-77
2022/07/08 03:38:04;;;;;;;4.20;2.92;;;16.20;99.90;;;;;;5121283;27;20043;-77
2022/07/08 03:43:14;;;;;;;4.90;1.70;;;16.10;99.90;;;;;;5123726;27;20066;-77
2022/07/08 03:45:40;;;;;;;5.72;2.05;;;16.00;99.90;;;;;;5119687;27;20047;-77
2022/07/08 03:48:06;;;;;;;4.22;3.25;;;15.90;99.90;;;;;;5121122;27;20050;-77
2022/07/08 03:50:32;;;;;;;4.80;2.20;;;16.00;99.90;;;;;;5121350;27;21714;-77
2022/07/08 03:52:57;;;;;;;6.65;2.28;;;16.00;99.90;;;;;;5118823;27;20047;-77
2022/07/08 03:55:25;;;;;;;8.98;2.20;;;16.00;99.90;;;;;;5121010;27;20038;-77
2022/07/08 03:57:51;;;;;;;4.85;2.20;;;16.00;99.90;;;;;;5122839;27;20074;-76
2022/07/08 04:00:19;;;;;;;3.65;1.85;;;16.00;99.90;;;;;;5119971;27;20045;-77
2022/07/08 04:02:48;;;;;;;5.80;2.00;;;16.00;99.90;;;;;;5116646;27;20035;-78
2022/07/08 04:05:14;;;;;;;8.13;2.78;;;16.00;99.90;;;;;;5120696;27;20042;-78
2022/07/08 04:07:40;;;;;;;3.65;1.85;;;16.00;99.90;;;;;;5120305;27;20059;-78
2022/07/08 04:10:06;;;;;;;7.43;2.40;;;16.00;99.90;;;;;;5117031;27;20428;-77
2022/07/08 04:12:32;;;;;;;9.25;2.45;;;16.00;99.90;;;;;;5117882;27;20171;-77
2022/07/08 04:14:58;;;;;;;5.50;2.03;;;16.00;99.90;;;;;;5117435;27;20456;-77
2022/07/08 04:17:24;;;;;;;8.63;2.65;;;16.00;99.90;;;;;;5119204;27;20047;-77
2022/07/08 04:19:50;;;;;;;5.55;2.28;;;16.00;99.90;;;;;;5122186;27;20059;-78
2022/07/08 04:22:16;;;;;;;7.55;2.40;;;16.00;99.90;;;;;;5120487;27;20481;-77
2022/07/08 04:24:42;;;;;;;4.32;1.80;;;15.90;99.90;;;;;;5119062;27;20969;-77
2022/07/08 04:27:08;;;;;;;4.93;2.42;;;15.90;99.90;;;;;;5119430;27;20051;-77
2022/07/08 04:29:33;;;;;;;5.13;2.22;;;15.90;99.90;;;;;;5118943;27;20047;-77
2022/07/08 04:31:59;;;;;;;6.82;2.42;;;16.00;99.90;;;;;;5117098;27;21249;-77
2022/07/08 04:34:26;;;;;;;7.93;2.00;;;16.00;99.90;;;;;;5118858;27;20085;-77
2022/07/08 04:36:52;;;;;;;6.13;1.95;;;15.90;99.90;;;;;;5122043;27;20123;-76
2022/07/08 04:39:18;;;;;;;6.18;1.70;;;15.90;99.90;;;;;;5125152;27;20150;-77
2022/07/08 04:41:43;;;;;;;6.78;3.55;;;15.90;99.90;;;;;;5114933;27;20036;-76
2022/07/08 04:44:09;;;;;;;4.70;1.90;;;15.90;99.90;;;;;;5117478;27;20540;-76
2022/07/08 04:46:35;;;;;;;3.67;2.03;;;15.90;99.90;;;;;;5120420;27;20052;-76
2022/07/08 04:49:01;;;;;;;3.47;1.63;;;15.80;99.90;;;;;;5118030;27;20031;-76
2022/07/08 04:51:27;;;;;;;4.00;2.03;;;15.80;99.90;;;;;;5117174;27;20031;-77
2022/07/08 04:53:52;;;;;;;8.13;4.00;;;15.80;99.90;;;;;;5116872;27;20624;-77
2022/07/08 04:56:18;;;;;;;9.48;2.38;;;15.80;99.90;;;;;;5120336;27;20047;-77
2022/07/08 04:58:44;;;;;;;2.30;1.55;;;15.90;99.90;;;;;;5119386;27;20131;-76
2022/07/08 05:01:10;;;;;;;4.03;1.88;;;15.80;99.90;;;;;;5121543;27;21045;-77
2022/07/08 05:03:35;;;;;;;3.17;1.75;;;15.80;99.90;;;;;;5121844;27;20074;-77
2022/07/08 05:06:01;;;;;;;6.10;1.98;;;15.80;99.90;;;;;;5120973;27;20217;-77
2022/07/08 05:08:28;;;;;;;5.20;1.85;;;15.70;99.90;;;;;;5120105;27;20047;-78
2022/07/08 05:10:53;;;;;;;3.58;1.77;;;15.80;99.90;;;;;;5120580;27;20047;-77
2022/07/08 05:13:19;;;;;;;4.63;1.67;;;15.80;99.90;;;;;;5122053;27;20039;-77
2022/07/08 05:15:45;;;;;;;4.60;1.90;;;15.80;99.90;;;;;;5122535;27;20050;-78
2022/07/08 05:18:11;;;;;;;4.90;2.20;;;15.80;99.90;;;;;;5140250;27;20047;-77
2022/07/08 05:20:37;;;;;;;14.50;3.88;;;15.90;99.90;;;;;;5125722;27;20454;-77
2022/07/08 05:23:03;;;;;;;4.40;2.72;;;15.90;99.90;;;;;;5122790;27;20044;-77
2022/07/08 05:25:29;;;;;;;6.35;2.25;;;15.90;99.90;;;;;;5123855;27;20089;-76
2022/07/08 05:27:55;;;;;;;5.75;2.78;;;15.90;99.90;;;;;;5122935;27;20046;-76
2022/07/08 05:30:21;;;;;;;6.05;2.28;;;15.90;99.90;;;;;;5122717;27;20051;-77
2022/07/08 05:32:47;;;;;;;5.35;1.77;;;15.90;99.90;;;;;;5120957;27;20071;-77
2022/07/08 05:35:13;;;;;;;3.08;1.40;;;16.00;99.90;;;;;;5121900;27;20456;-76
2022/07/08 05:37:39;;;;;;;6.35;2.22;;;16.00;99.90;;;;;;5123396;27;20043;-77
2022/07/08 05:40:07;;;;;;;5.45;2.50;;;16.00;99.90;;;;;;5124761;27;20035;-76
2022/07/08 05:42:34;;;;;;;5.32;1.80;;;16.10;99.90;;;;;;5123444;27;20046;-76
2022/07/08 05:44:59;;;;;;;2.53;1.75;;;16.10;99.90;;;;;;5122009;27;20070;-76
2022/07/08 05:47:25;;;;;;;6.68;1.60;;;16.10;99.90;;;;;;5122367;27;20505;-77
2022/07/08 05:49:51;;;;;;;6.90;2.17;;;16.10;99.90;;;;;;5120637;27;20162;-78
2022/07/08 05:52:18;;;;;;;5.88;2.65;;;16.10;99.90;;;;;;5118150;27;20040;-77
2022/07/08 05:54:45;;;;;;;3.67;2.15;;;16.10;99.90;;;;;;5120273;27;20044;-79
2022/07/08 05:57:11;;;;;;;5.40;2.10;;;16.10;99.90;;;;;;5116476;27;20043;-79
2022/07/08 05:59:37;;;;;;;5.20;1.77;;;16.10;99.90;;;;;;5120303;27;20499;-79
2022/07/08 06:02:03;;;;;;;7.32;2.08;;;16.10;99.90;;;;;;5119244;27;20066;-79
2022/07/08 06:04:29;;;;;;;2.80;1.48;;;16.10;99.90;;;;;;5122251;27;20136;-79
2022/07/08 06:06:56;;;;;;;10.35;3.38;;;16.20;99.90;;;;;;5123320;27;20096;-80
2022/07/08 06:09:22;;;;;;;3.22;1.77;;;16.20;99.90;;;;;;5124874;27;20042;-79
2022/07/08 06:11:48;;;;;;;10.02;2.28;;;16.20;99.90;;;;;;5120897;27;20095;-80
2022/07/08 06:14:13;;;;;;;13.48;2.00;;;16.20;99.90;;;;;;5118051;27;20093;-77
2022/07/08 06:16:39;;;;;;;5.00;2.45;;;16.30;99.90;;;;;;5111876;27;20521;-78
2022/07/08 06:19:05;;;;;;;6.97;1.67;;;16.30;99.90;;;;;;5122522;27;20868;-78
2022/07/08 06:21:31;;;;;;;3.95;1.65;;;16.30;99.90;;;;;;5116032;27;20075;-77
2022/07/08 06:23:57;;;;;;;4.97;2.03;;;16.30;99.90;;;;;;5120631;27;20660;-77
2022/07/08 06:26:22;;;;;;;5.57;2.47;;;16.30;99.90;;;;;;5120099;27;20039;-77
2022/07/08 06:28:48;;;;;;;8.70;2.05;;;16.30;99.90;;;;;;5119347;27;20452;-78
2022/07/08 06:31:14;;;;;;;6.35;2.03;;;16.30;99.90;;;;;;5118327;27;20429;-77
2022/07/08 06:33:40;;;;;;;7.05;1.90;;;16.30;99.90;;;;;;5115654;27;20040;-77
2022/07/08 06:36:06;;;;;;;6.75;2.45;;;16.40;99.90;;;;;;5116754;27;20528;-78
2022/07/08 06:38:32;;;;;;;4.43;2.25;;;16.30;99.90;;;;;;5112678;27;20694;-79
2022/07/08 06:40:58;;;;;;;4.68;2.22;;;16.40;99.90;;;;;;5117728;27;20160;-80
2022/07/08 06:43:24;;;;;;;6.13;1.90;;;16.40;99.90;;;;;;5117741;27;20521;-79
2022/07/08 06:45:49;;;;;;;13.15;2.53;;;16.40;99.90;;;;;;5117311;27;20047;-77
2022/07/08 06:48:15;;;;;;;9.88;1.60;;;16.50;99.90;;;;;;5116427;27;20235;-77
2022/07/08 06:50:41;;;;;;;3.97;1.95;;;16.50;99.90;;;;;;5116623;27;20046;-79
2022/07/08 06:53:07;;;;;;;7.90;2.38;;;16.50;99.90;;;;;;5122015;27;20047;-78
2022/07/08 06:55:33;;;;;;;4.50;2.72;;;16.50;99.90;;;;;;5116609;27;20035;-79
2022/07/08 06:57:58;;;;;;;5.00;3.15;;;16.50;99.90;;;;;;5123584;27;20043;-79
2022/07/08 07:00:24;;;;;;;5.35;1.60;;;16.50;99.90;;;;;;5122889;27;20933;-79
2022/07/08 07:02:50;;;;;;;9.15;1.73;;;16.60;99.90;;;;;;5122238;27;20086;-79
2022/07/08 07:05:19;;;;;;;5.85;1.63;;;16.60;99.90;;;;;;5125785;27;20035;-79
2022/07/08 07:07:45;;;;;;;8.05;2.00;;;16.60;99.90;;;;;;5121525;27;20054;-78
2022/07/08 07:10:11;;;;;;;5.40;1.88;;;16.70;99.90;;;;;;5125182;27;21180;-79
2022/07/08 07:12:37;;;;;;;3.10;1.50;;;16.70;99.90;;;;;;5125033;27;20096;-79
2022/07/08 07:15:03;;;;;;;8.55;3.03;;;16.80;99.90;;;;;;5124390;27;20043;-79
2022/07/08 07:17:29;;;;;;;3.25;1.50;;;16.80;99.90;;;;;;5122717;27;20547;-79
2022/07/08 07:19:54;;;;;;;5.32;2.35;;;16.80;99.90;;;;;;5123743;27;20140;-79
2022/07/08 07:22:20;;;;;;;10.48;1.92;;;16.80;99.90;;;;;;5122134;27;20546;-79
2022/07/08 07:24:46;;;;;;;5.28;1.77;;;16.90;99.90;;;;;;5122553;27;20039;-79
2022/07/08 07:27:12;;;;;;;12.52;2.70;;;16.90;99.90;;;;;;5123667;27;20047;-79
2022/07/08 07:29:38;;;;;;;5.38;1.73;;;16.90;99.90;;;;;;5123274;27;20420;-80
2022/07/08 07:32:04;;;;;;;8.30;2.65;;;16.90;99.90;;;;;;5124293;27;20054;-80
2022/07/08 07:34:29;;;;;;;6.20;1.75;;;16.90;99.90;;;;;;5121117;27;20110;-79
2022/07/08 07:36:55;;;;;;;7.80;3.03;;;17.00;99.90;;;;;;5122119;27;20035;-80
2022/07/08 07:39:21;;;;;;;3.45;1.58;;;17.00;99.90;;;;;;5123958;27;20088;-80
2022/07/08 07:41:46;;;;;;;9.02;2.35;;;17.00;99.90;;;;;;5124330;27;20577;-79
2022/07/08 07:44:12;;;;;;;6.95;1.88;;;17.00;99.90;;;;;;5124807;27;20040;-79
2022/07/08 07:46:38;;;;;;;11.18;2.92;;;17.00;99.90;;;;;;5123188;27;20035;-79
2022/07/08 07:49:04;;;;;;;4.50;1.65;;;17.00;99.90;;;;;;5120484;27;20126;-79
2022/07/08 07:51:30;;;;;;;7.00;1.95;;;17.10;99.90;;;;;;5123545;27;20040;-79
2022/07/08 07:53:56;;;;;;;5.47;2.13;;;17.10;99.90;;;;;;5124550;27;20050;-79
2022/07/08 07:56:23;;;;;;;4.38;1.73;;;17.10;99.90;;;;;;5121607;27;20794;-78
2022/07/08 07:58:49;;;;;;;5.50;2.05;;;17.10;99.90;;;;;;5119397;27;20043;-79
2022/07/08 08:01:15;;;;;;;5.88;1.83;;;17.10;99.90;;;;;;5122111;27;20047;-79
2022/07/08 08:03:41;;;;;;;3.67;2.17;;;17.10;99.90;;;;;;5121395;27;20043;-79
2022/07/08 08:06:07;;;;;;;3.83;2.13;;;17.10;99.90;;;;;;5122164;27;20048;-79
2022/07/08 08:08:34;;;;;;;16.42;3.25;;;17.20;99.90;;;;;;5123453;27;20081;-79
2022/07/08 08:11:00;;;;;;;6.60;3.13;;;17.20;99.90;;;;;;5123623;27;20146;-79
2022/07/08 08:13:27;;;;;;;5.57;2.65;;;17.20;99.90;;;;;;5123102;27;20035;-79
2022/07/08 08:15:53;;;;;;;8.95;2.72;;;17.30;99.90;;;;;;5121238;27;20055;-79
2022/07/08 08:18:19;;;;;;;10.93;2.67;;;17.30;99.90;;;;;;5120014;27;20058;-79
2022/07/08 08:20:45;;;;;;;6.03;1.85;;;17.30;99.90;;;;;;5120985;27;20039;-79
2022/07/08 08:23:11;;;;;;;3.28;2.22;;;17.30;99.90;;;;;;5119329;27;20052;-79
2022/07/08 08:25:37;;;;;;;4.10;2.47;;;17.40;99.90;;;;;;5120601;27;20047;-79
2022/07/08 08:28:04;;;;;;;5.97;2.47;;;17.40;99.90;;;;;;5121167;27;20054;-79
2022/07/08 08:30:30;;;;;;;5.05;2.75;;;17.40;99.90;;;;;;5121346;27;20036;-79
2022/07/08 08:32:56;;;;;;;5.45;1.85;;;17.40;99.90;;;;;;5120772;27;20048;-79
2022/07/08 08:35:22;;;;;;;4.05;1.73;;;17.50;99.90;;;;;;5122161;27;20032;-79
2022/07/08 08:37:48;;;;;;;7.78;1.67;;;17.50;99.90;;;;;;5120976;27;20128;-79
2022/07/08 08:40:13;;;;;;;8.98;1.80;;;17.60;99.90;;;;;;5127809;27;20044;-80
2022/07/08 08:42:41;;;;;;;5.53;2.00;;;17.60;99.90;;;;;;5123591;27;20447;-79
2022/07/08 08:45:08;;;;;;;5.93;2.05;;;17.60;99.90;;;;;;5123557;27;20043;-79
2022/07/08 08:47:36;;;;;;;6.57;2.13;;;17.70;99.90;;;;;;5126148;27;20617;-79
2022/07/08 08:52:55;;;;;;;5.45;2.10;;;17.70;99.90;;;;;;5126159;27;20043;-80
2022/07/08 08:55:26;;;;;;;4.22;1.80;;;17.70;99.90;;;;;;5125325;27;20104;-80
2022/07/08 08:57:59;;;;;;;6.30;1.52;;;17.80;99.90;;;;;;5131293;27;20063;-79
2022/07/08 09:00:27;;;;;;;5.05;1.60;;;17.80;99.90;;;;;;5131495;27;20090;-79
2022/07/08 09:02:53;;;;;;;4.15;1.58;;;17.80;99.90;;;;;;5127249;27;20417;-80
2022/07/08 09:05:23;;;;;;;7.70;2.08;;;17.80;99.90;;;;;;5128288;27;20564;-79
2022/07/08 09:07:50;;;;;;;2.90;1.50;;;17.90;99.90;;;;;;5126908;27;20055;-79
2022/07/08 09:10:17;;;;;;;6.05;1.55;;;17.80;99.90;;;;;;5129276;27;20044;-78
2022/07/08 09:13:07;;;;;;;7.85;2.58;;;17.90;99.90;;;;;;5126536;27;20040;-78
2022/07/08 09:15:39;;;;;;;4.55;1.25;;;18.00;99.90;;;;;;5110000;27;20625;-78
2022/07/08 09:18:08;;;;;;;11.63;3.53;;;18.00;99.90;;;;;;5126170;27;20047;-77
2022/07/08 09:20:54;;;;;;;3.15;2.10;;;18.00;99.90;;;;;;5126875;27;20283;-77
2022/07/08 09:23:31;;;;;;;5.45;2.20;;;18.00;99.90;;;;;;5126215;27;20046;-78
2022/07/08 09:25:58;;;;;;;6.78;3.45;;;18.10;99.90;;;;;;5124042;27;20049;-78
2022/07/08 09:28:32;;;;;;;5.50;2.70;;;18.10;99.90;;;;;;5124896;27;20039;-78
2022/07/08 09:31:00;;;;;;;7.35;1.30;;;18.20;99.90;;;;;;5125937;27;20086;-78
2022/07/08 09:33:27;;;;;;;5.22;1.92;;;18.20;99.90;;;;;;5126595;27;20043;-77
2022/07/08 09:35:54;;;;;;;3.80;1.48;;;18.20;99.90;;;;;;5127189;27;20119;-78
2022/07/08 09:38:22;;;;;;;4.30;1.30;;;18.30;99.90;;;;;;5128364;27;20039;-78
2022/07/08 09:40:58;;;;;;;5.40;2.88;;;18.30;99.90;;;;;;5129072;27;20154;-78
2022/07/08 09:43:25;;;;;;;5.57;1.48;;;18.30;99.90;;;;;;5129030;27;20044;-78
2022/07/08 09:45:51;;;;;;;3.22;1.75;;;18.40;99.90;;;;;;5123881;27;20042;-78
2022/07/08 09:48:18;;;;;;;4.10;1.35;;;18.40;99.90;;;;;;5126995;27;20440;-77
2022/07/08 09:50:48;;;;;;;3.65;1.42;;;18.50;99.90;;;;;;5127157;27;20629;-77
2022/07/08 09:53:19;;;;;;;3.53;1.42;;;18.50;99.90;;;;;;5127271;27;20042;-77
2022/07/08 09:55:48;;;;;;;8.00;1.98;;;18.60;99.90;;;;;;5128561;27;20099;-77
2022/07/08 09:58:15;;;;;;;3.80;1.33;;;18.60;99.90;;;;;;5128850;27;20039;-77
2022/07/08 10:00:43;;;;;;;5.22;1.20;;;18.70;99.90;;;;;;5123700;27;20068;-78
2022/07/08 10:03:09;;;;;;;7.85;1.73;;;18.70;99.80;;;;;;5128709;27;20627;-77
2022/07/08 10:05:36;;;;;;;9.77;1.75;;;18.70;99.30;;;;;;5131466;27;20043;-77
2022/07/08 10:08:02;;;;;;;4.82;2.03;;;18.80;99.10;;;;;;5129088;27;20108;-77
2022/07/08 10:10:29;;;;;;;3.92;1.00;;;18.80;98.60;;;;;;5128846;27;20116;-77
2022/07/08 10:12:58;;;;;;;4.53;1.40;;;18.90;98.40;;;;;;5125940;27;20040;-77
2022/07/08 10:15:25;;;;;;;6.88;1.38;;;18.90;98.00;;;;;;5130369;27;20544;-77
2022/07/08 10:17:51;;;;;;;9.02;1.13;;;18.90;97.80;;;;;;5129467;27;20040;-78
2022/07/08 10:20:22;;;;;;;3.28;1.17;;;18.90;97.50;;;;;;5130971;27;20039;-77
2022/07/08 10:22:51;;;;;;;3.57;1.50;;;19.00;97.30;;;;;;5130953;27;20076;-77
2022/07/08 10:25:20;;;;;;;4.07;1.73;;;19.00;97.20;;;;;;5129592;27;20303;-78
2022/07/08 10:27:46;;;;;;;3.03;0.98;;;19.00;96.90;;;;;;5127415;27;20596;-77
2022/07/08 10:30:17;;;;;;;3.05;1.42;;;19.10;96.70;;;;;;5126413;27;20045;-77
2022/07/08 10:32:53;;;;;;;4.63;1.45;;;19.10;96.50;;;;;;5128083;27;20040;-78
2022/07/08 10:35:20;;;;;;;3.00;0.85;;;19.20;96.00;;;;;;5129834;27;20047;-77
2022/07/08 10:37:59;;;;;;;5.35;1.83;;;19.20;95.50;;;;;;5129782;27;20031;-78
2022/07/08 10:40:50;;;;;;;4.72;1.52;;;19.30;95.20;;;;;;5125735;27;20043;-78
2022/07/08 10:43:19;;;;;;;4.07;1.10;;;19.30;94.60;;;;;;5130379;27;20064;-78
2022/07/08 10:46:10;;;;;;;4.07;1.00;;;19.40;94.20;;;;;;5129804;27;20440;-78
2022/07/08 10:48:43;;;;;;;1.90;1.30;;;19.40;93.90;;;;;;5126831;27;20097;-78
2022/07/08 10:51:29;;;;;;;5.18;1.88;;;19.40;93.80;;;;;;5130105;27;20109;-78
2022/07/08 10:54:02;;;;;;;2.80;1.30;;;19.40;93.60;;;;;;5128516;27;20767;-78
2022/07/08 10:56:50;;;;;;;4.28;1.23;;;19.50;93.60;;;;;;5124049;27;20433;-78
2022/07/08 10:59:28;;;;;;;5.10;1.00;;;19.50;93.20;;;;;;5125362;27;20078;-78
2022/07/08 11:02:12;;;;;;;3.70;1.20;;;19.50;92.90;;;;;;5127299;27;20476;-77
2022/07/08 11:04:39;;;;;;;4.68;1.20;;;19.60;92.50;;;;;;5124034;27;20035;-77
2022/07/08 11:07:17;;;;;;;3.85;1.23;;;19.60;92.10;;;;;;5125411;27;20583;-77
2022/07/08 11:09:51;;;;;;;2.63;1.40;;;19.70;91.90;;;;;;5119974;27;20035;-77
2022/07/08 11:12:20;;;;;;;1.58;0.90;;;19.80;91.90;;;;;;5123111;27;20112;-77
2022/07/08 11:14:49;;;;;;;3.58;0.98;;;19.80;91.40;;;;;;5124982;27;20862;-77
2022/07/08 11:17:20;;;;;;;3.47;1.10;;;19.90;90.80;;;;;;5124721;27;20493;-78
2022/07/08 11:19:47;;;;;;;4.00;0.80;;;20.00;90.50;;;;;;5109415;27;20938;-77
2022/07/08 11:22:14;;;;;;;0.88;0.68;;;19.90;90.20;;;;;;5124868;27;20537;-77
2022/07/08 11:24:43;;;;;;;5.30;1.20;;;19.90;90.10;;;;;;5127135;27;20032;-77
2022/07/08 11:27:09;;;;;;;1.40;1.08;;;20.00;90.00;;;;;;5143555;27;20074;-78
2022/07/08 11:29:35;;;;;;;1.35;1.05;;;20.00;89.90;;;;;;5146275;27;20055;-78
2022/07/08 11:32:03;;;;;;;2.13;1.00;;;20.10;89.60;;;;;;5142542;27;20043;-78
2022/07/08 11:34:29;;;;;;;1.77;0.82;;;20.10;89.40;;;;;;5132348;27;20115;-77
2022/07/08 11:37:02;;;;;;;6.03;1.75;;;20.20;89.40;;;;;;5132453;27;20577;-77
2022/07/08 11:39:28;;;;;;;1.42;0.65;;;20.20;89.20;;;;;;5131236;27;20035;-77
2022/07/08 11:41:54;;;;;;;5.15;1.42;;;20.20;89.00;;;;;;5125241;27;20130;-78
2022/07/08 11:44:21;;;;;;;3.30;1.20;;;20.30;88.80;;;;;;5126867;27;20044;-77
2022/07/08 11:46:51;;;;;;;4.28;1.08;;;20.40;88.80;;;;;;5127654;27;20088;-77
2022/07/08 11:49:18;;;;;;;1.00;0.80;;;20.40;88.60;;;;;;5129983;27;20039;-77
2022/07/08 11:51:48;;;;;;;2.88;1.02;;;20.40;88.80;;;;;;5110041;27;20054;-78
2022/07/08 11:54:22;;;;;;;5.78;1.55;;;20.40;88.20;;;;;;5124723;27;20061;-77
2022/07/08 11:56:59;;;;;;;4.60;1.05;;;20.40;88.10;;;;;;5123945;27;20154;-77
2022/07/08 11:59:30;;;;;;;4.90;0.95;;;20.40;87.90;;;;;;5127109;27;20046;-77
2022/07/08 12:01:58;;;;;;;4.17;1.37;;;20.50;87.80;;;;;;5128257;27;20146;-77
2022/07/08 12:04:24;;;;;;;4.15;0.80;;;20.50;87.90;;;;;;5126492;27;21029;-78
2022/07/08 12:06:51;;;;;;;1.50;0.90;;;20.60;87.80;;;;;;5126209;27;20043;-77
2022/07/08 12:09:18;;;;;;;5.10;1.52;;;20.60;87.50;;;;;;5127703;27;20140;-77
2022/07/08 12:11:49;;;;;;;1.27;0.80;;;20.60;87.90;;;;;;5112556;27;20063;-77
2022/07/08 12:14:16;;;;;;;6.30;1.50;;;20.60;87.30;;;;;;5127129;27;20049;-77
2022/07/08 12:16:47;;;;;;;4.07;1.20;;;20.70;86.80;;;;;;5127861;27;20051;-76
2022/07/08 12:19:29;;;;;;;4.60;1.73;;;20.80;86.60;;;;;;5130811;27;20035;-77
2022/07/08 12:21:57;;;;;;;6.55;2.00;;;20.80;86.70;;;;;;5128498;27;20434;-77
2022/07/08 12:24:31;;;;;;;4.15;1.20;;;20.80;86.50;;;;;;5128106;27;20032;-77
2022/07/08 12:27:16;;;;;;;4.13;1.20;;;20.90;86.50;;;;;;5129471;27;20039;-77
2022/07/08 12:29:41;;;;;;;2.97;1.38;;;21.00;85.90;;;;;;5130475;27;20480;-78
2022/07/08 12:32:08;;;;;;;4.45;1.40;;;20.90;85.60;;;;;;5128829;27;20059;-77
2022/07/08 12:34:34;;;;;;;3.22;1.00;;;21.00;85.00;;;;;;5127421;27;20039;-77
2022/07/08 12:37:18;;;;;;;4.90;2.00;;;21.00;85.30;;;;;;5129780;27;20134;-77
2022/07/08 12:39:44;;;;;;;5.90;1.67;;;21.10;86.10;;;;;;5125788;27;20743;-78
2022/07/08 12:42:09;;;;;;;6.78;1.20;;;21.10;85.50;;;;;;5128191;27;20043;-77
2022/07/08 12:44:49;;;;;;;2.47;1.17;;;21.10;85.50;;;;;;5125562;27;20036;-78
2022/07/08 12:47:15;;;;;;;4.18;1.10;;;21.20;85.30;;;;;;5130237;27;20036;-77
2022/07/08 12:49:43;;;;;;;4.30;2.10;;;21.30;84.40;;;;;;5127507;27;20127;-78
2022/07/08 12:52:10;;;;;;;7.18;1.20;;;21.40;83.50;;;;;;5129092;27;20035;-77